TAF Text Data
IDs:
Format:
Raw Decoded Include METAR

Data at: 1352 UTC 10 Jul 2020

KORH 101134Z 1012/1112 18003KT 6SM BR BKN003
  FM101500 13006KT P6SM BKN050
  FM102100 14008KT P6SM -SHRA OVC015
  FM110000 11008KT 4SM SHRA BR OVC010
  FM110400 11011G25KT 1 1/2SM -SHRA BR OVC003
  FM110600 14012G27KT 1/2SM -SHRA FG OVC003